Time;durP1;ratioP1;P1;durP2;ratioP2;P2;SDS_P1;SDS_P2;PMS_P1;PMS_P2;Temp;Humidity;BMP_temperature;BMP_pressure;BME280_temperature;BME280_humidity;BME280_pressure;Samples;Min_cycle;Max_cycle;Signal;HPM_P1;HPM_P2
2022/08/12 00:43:34;;;;;;;0.45;0.30;;;18.40;99.90;;;;;;5047080;28;20513;-86
2022/08/12 00:48:47;;;;;;;0.70;0.45;;;18.30;99.90;;;;;;5033154;28;20041;-84
2022/08/12 00:51:14;;;;;;;0.60;0.55;;;18.30;99.90;;;;;;5014513;28;20084;-84
2022/08/12 00:53:41;;;;;;;0.30;0.30;;;18.20;99.90;;;;;;5030205;28;20469;-84
2022/08/12 00:56:09;;;;;;;0.68;0.32;;;18.20;99.90;;;;;;5030145;28;20038;-84
2022/08/12 00:58:43;;;;;;;0.28;0.20;;;18.10;99.90;;;;;;4998760;28;20096;-84
2022/08/12 01:01:10;;;;;;;0.30;0.30;;;18.10;99.90;;;;;;5030261;28;20488;-87
2022/08/12 01:12:00;;;;;;;0.52;0.40;;;18.10;99.90;;;;;;5032808;28;20046;-87
2022/08/12 01:14:27;;;;;;;0.50;0.50;;;18.00;99.90;;;;;;4998364;28;20488;-87
2022/08/12 01:16:55;;;;;;;0.32;0.30;;;18.00;99.90;;;;;;5014484;28;20488;-87
2022/08/12 01:19:23;;;;;;;0.30;0.30;;;17.90;99.90;;;;;;5013259;28;20053;-84
2022/08/12 01:22:08;;;;;;;0.20;0.20;;;17.90;99.90;;;;;;5014586;28;20074;-87
2022/08/12 01:24:53;;;;;;;0.30;0.30;;;17.90;99.90;;;;;;5030229;28;20041;-83
2022/08/12 01:27:22;;;;;;;0.20;0.20;;;17.90;99.90;;;;;;5030344;28;20105;-84
2022/08/12 01:29:51;;;;;;;0.73;0.40;;;17.90;99.90;;;;;;5013851;28;20048;-87
2022/08/12 01:32:21;;;;;;;0.32;0.28;;;17.80;99.90;;;;;;5030099;28;20041;-87
2022/08/12 01:35:01;;;;;;;0.52;0.30;;;17.80;99.90;;;;;;5013971;28;20197;-84
2022/08/12 01:37:35;;;;;;;0.47;0.38;;;17.80;99.90;;;;;;5030304;28;20037;-87
2022/08/12 01:40:04;;;;;;;0.65;0.47;;;17.70;99.90;;;;;;5029974;28;20046;-87
2022/08/12 01:42:40;;;;;;;0.35;0.30;;;17.70;99.90;;;;;;5029789;28;20037;-87
2022/08/12 01:45:08;;;;;;;0.20;0.20;;;17.60;99.90;;;;;;5030419;28;20037;-84
2022/08/12 01:47:53;;;;;;;0.47;0.40;;;17.60;99.90;;;;;;5029473;28;20038;-87
2022/08/12 01:50:40;;;;;;;0.80;0.40;;;17.60;99.90;;;;;;5030171;28;20510;-87
2022/08/12 01:53:10;;;;;;;0.55;0.40;;;17.60;99.90;;;;;;5045922;28;20518;-87
2022/08/12 01:55:40;;;;;;;3.13;0.30;;;17.50;99.90;;;;;;5013426;28;20517;-83
2022/08/12 01:58:17;;;;;;;0.82;0.45;;;17.50;99.90;;;;;;5029812;28;20056;-87
2022/08/12 02:00:57;;;;;;;0.40;0.30;;;17.40;99.90;;;;;;5013567;28;20038;-87
2022/08/12 02:13:20;;;;;;;0.40;0.38;;;17.40;99.90;;;;;;5033655;28;20046;-87
2022/08/12 02:16:02;;;;;;;0.65;0.50;;;17.30;99.90;;;;;;5017291;28;20123;-87
2022/08/12 02:18:55;;;;;;;0.68;0.47;;;17.30;99.90;;;;;;5016907;28;20491;-84
2022/08/12 02:21:37;;;;;;;0.52;0.30;;;17.20;99.90;;;;;;4990442;28;20152;-87
2022/08/12 02:24:07;;;;;;;0.35;0.30;;;17.20;99.90;;;;;;5017013;28;20069;-87
2022/08/12 02:26:38;;;;;;;0.90;0.50;;;17.10;99.90;;;;;;5016820;28;20135;-87
2022/08/12 02:29:06;;;;;;;0.32;0.32;;;17.10;99.90;;;;;;5001542;28;20042;-87
2022/08/12 02:31:33;;;;;;;1.00;0.50;;;17.10;99.90;;;;;;5001003;28;20057;-84
2022/08/12 02:34:01;;;;;;;0.50;0.30;;;17.10;99.90;;;;;;4985325;28;20042;-84
2022/08/12 02:36:31;;;;;;;0.40;0.30;;;17.10;99.90;;;;;;5000395;28;20053;-88
2022/08/12 02:38:59;;;;;;;0.28;0.28;;;17.00;99.90;;;;;;5016408;28;20400;-87
2022/08/12 02:41:28;;;;;;;0.82;0.47;;;17.10;99.90;;;;;;5000801;28;20064;-83
2022/08/12 02:44:03;;;;;;;0.60;0.40;;;17.00;99.90;;;;;;5016336;28;20069;-87
2022/08/12 02:46:33;;;;;;;0.70;0.50;;;17.00;99.90;;;;;;5016796;28;20491;-84
2022/08/12 02:49:05;;;;;;;0.82;0.63;;;17.00;99.90;;;;;;5016345;28;20804;-84
2022/08/12 02:51:33;;;;;;;0.52;0.50;;;16.90;99.90;;;;;;5016812;28;20038;-84
2022/08/12 02:54:02;;;;;;;0.50;0.40;;;16.90;99.90;;;;;;5004270;28;20057;-87
2022/08/12 02:56:29;;;;;;;0.30;0.30;;;16.90;99.90;;;;;;5032680;28;20081;-87
2022/08/12 02:58:57;;;;;;;0.47;0.43;;;16.80;99.90;;;;;;5032052;28;20124;-87
2022/08/12 03:01:32;;;;;;;0.77;0.50;;;16.80;99.90;;;;;;5032802;28;20050;-87
2022/08/12 03:04:06;;;;;;;0.57;0.50;;;16.80;99.90;;;;;;5032093;28;20070;-87
2022/08/12 03:07:08;;;;;;;0.60;0.30;;;16.80;99.90;;;;;;5032020;28;20041;-83
2022/08/12 03:09:46;;;;;;;1.23;0.38;;;16.80;99.90;;;;;;4981545;28;20042;-84
2022/08/12 03:12:13;;;;;;;0.30;0.30;;;16.80;99.90;;;;;;5032172;28;20507;-84
2022/08/12 03:14:42;;;;;;;0.47;0.40;;;16.80;99.90;;;;;;4999782;28;20080;-83
2022/08/12 03:17:53;;;;;;;0.80;0.60;;;16.80;99.90;;;;;;5015667;28;20073;-83
2022/08/12 03:20:21;;;;;;;0.30;0.30;;;16.80;99.90;;;;;;5019753;28;20060;-83
2022/08/12 03:22:50;;;;;;;0.75;0.50;;;16.80;99.90;;;;;;5032192;28;20406;-83
2022/08/12 03:25:23;;;;;;;0.40;0.40;;;16.70;99.90;;;;;;5015306;28;20045;-87
2022/08/12 03:27:55;;;;;;;0.68;0.28;;;16.60;99.90;;;;;;5031607;28;20140;-83
2022/08/12 03:30:31;;;;;;;0.47;0.40;;;16.60;99.90;;;;;;5031899;28;20049;-86
2022/08/12 03:33:00;;;;;;;0.32;0.30;;;16.60;99.90;;;;;;5031907;28;20052;-84
2022/08/12 03:35:32;;;;;;;0.63;0.40;;;16.60;99.90;;;;;;5031643;28;20044;-84
2022/08/12 03:38:03;;;;;;;0.73;0.30;;;16.60;99.90;;;;;;5031733;28;20491;-86
2022/08/12 04:00:24;;;;;;;0.60;0.55;;;16.40;99.90;;;;;;5024493;28;20517;-87
2022/08/12 04:03:01;;;;;;;0.40;0.38;;;16.30;99.90;;;;;;5031445;28;20053;-87
2022/08/12 04:05:30;;;;;;;0.55;0.40;;;16.40;99.90;;;;;;5012721;28;20031;-83
2022/08/12 04:07:58;;;;;;;0.35;0.30;;;16.30;99.90;;;;;;4981216;28;20141;-83
2022/08/12 04:13:24;;;;;;;0.25;0.20;;;16.30;99.90;;;;;;5033698;28;20081;-84
2022/08/12 04:15:51;;;;;;;0.30;0.30;;;16.30;99.90;;;;;;5031330;28;20569;-83
2022/08/12 04:18:18;;;;;;;0.43;0.40;;;16.30;99.90;;;;;;5030740;28;20197;-87
2022/08/12 04:20:48;;;;;;;0.80;0.50;;;16.20;99.90;;;;;;5014106;28;20514;-86
2022/08/12 04:23:16;;;;;;;0.35;0.30;;;16.20;99.90;;;;;;4999307;28;20069;-87
2022/08/12 04:25:43;;;;;;;0.73;0.55;;;16.20;99.90;;;;;;5030869;28;20052;-85
2022/08/12 04:28:12;;;;;;;0.20;0.20;;;16.20;99.90;;;;;;5030913;28;20096;-87
2022/08/12 04:30:39;;;;;;;0.25;0.25;;;16.10;99.90;;;;;;5014224;28;20042;-84
2022/08/12 04:33:11;;;;;;;0.20;0.20;;;16.10;99.90;;;;;;5014732;28;20795;-84
2022/08/12 04:35:38;;;;;;;0.40;0.40;;;16.10;99.90;;;;;;5030750;28;20065;-83
2022/08/12 04:38:06;;;;;;;0.35;0.35;;;16.20;99.90;;;;;;5014229;28;20084;-86
2022/08/12 04:40:35;;;;;;;0.47;0.30;;;16.10;99.90;;;;;;5030410;28;20056;-87
2022/08/12 04:43:02;;;;;;;0.55;0.43;;;16.20;99.90;;;;;;5030115;28;20410;-87
2022/08/12 04:45:31;;;;;;;0.45;0.30;;;16.10;99.90;;;;;;5030142;28;20048;-83
2022/08/12 04:47:58;;;;;;;0.35;0.35;;;16.20;99.90;;;;;;5014300;28;20133;-83
2022/08/12 04:50:24;;;;;;;0.28;0.28;;;16.20;99.90;;;;;;5014091;28;20526;-87
2022/08/12 04:52:51;;;;;;;1.23;0.60;;;16.20;99.90;;;;;;5030452;28;20045;-87
2022/08/12 04:55:18;;;;;;;0.30;0.30;;;16.20;99.90;;;;;;5045894;28;20081;-83
2022/08/12 04:57:45;;;;;;;0.70;0.32;;;16.20;99.90;;;;;;5030576;28;20538;-83
2022/08/12 05:00:13;;;;;;;0.75;0.55;;;16.20;99.90;;;;;;4998064;28;20450;-87
2022/08/12 05:02:40;;;;;;;0.50;0.40;;;16.20;99.90;;;;;;5029713;28;20483;-87
2022/08/12 05:05:10;;;;;;;0.82;0.50;;;16.20;99.90;;;;;;4998296;28;20065;-83
2022/08/12 05:07:37;;;;;;;0.25;0.20;;;16.30;99.90;;;;;;5014324;28;20077;-87
2022/08/12 05:10:04;;;;;;;0.35;0.30;;;16.30;99.90;;;;;;5030738;28;20073;-87
2022/08/12 05:12:38;;;;;;;0.30;0.28;;;16.30;99.90;;;;;;4998131;28;20544;-87
2022/08/12 05:15:06;;;;;;;0.25;0.25;;;16.40;99.90;;;;;;5027316;28;20046;-84
2022/08/12 05:17:32;;;;;;;0.22;0.22;;;16.40;99.90;;;;;;5014094;28;20049;-86
2022/08/12 05:19:59;;;;;;;0.68;0.43;;;16.40;99.90;;;;;;5030335;28;20034;-87
2022/08/12 05:22:26;;;;;;;0.63;0.38;;;16.50;99.90;;;;;;5030306;28;20038;-83
2022/08/12 05:24:53;;;;;;;0.77;0.40;;;16.60;99.90;;;;;;5027018;28;20046;-84
2022/08/12 05:27:21;;;;;;;0.50;0.38;;;16.60;99.90;;;;;;5018863;28;20483;-84
2022/08/12 05:29:48;;;;;;;0.28;0.22;;;16.70;99.90;;;;;;5014399;28;20129;-87
2022/08/12 05:32:19;;;;;;;0.38;0.30;;;16.80;99.90;;;;;;5013750;28;20491;-84
2022/08/12 05:34:47;;;;;;;0.00;0.00;;;16.90;99.90;;;;;;5030494;28;20041;-84
2022/08/12 05:37:15;;;;;;;0.50;0.43;;;17.00;99.90;;;;;;5010647;28;20042;-87
2022/08/12 05:39:42;;;;;;;0.35;0.30;;;17.10;99.90;;;;;;5032083;28;20073;-87
2022/08/12 05:42:08;;;;;;;0.22;0.22;;;17.10;99.90;;;;;;5046703;28;20046;-87
2022/08/12 05:44:36;;;;;;;0.52;0.32;;;17.20;99.90;;;;;;5033837;28;20092;-88
2022/08/12 05:47:04;;;;;;;0.35;0.35;;;17.20;99.90;;;;;;5017589;28;20050;-87
2022/08/12 05:49:32;;;;;;;0.22;0.20;;;17.30;99.90;;;;;;4998460;28;20054;-87
2022/08/12 05:52:00;;;;;;;0.20;0.20;;;17.40;99.90;;;;;;5013878;28;20047;-88
2022/08/12 05:54:27;;;;;;;0.30;0.30;;;17.50;99.90;;;;;;4998429;28;20050;-88
2022/08/12 05:56:54;;;;;;;0.38;0.30;;;17.60;99.90;;;;;;4987259;28;20108;-88
2022/08/12 05:59:20;;;;;;;0.38;0.30;;;17.60;99.90;;;;;;5001363;28;20067;-84
2022/08/12 06:01:47;;;;;;;0.40;0.38;;;17.70;99.90;;;;;;5017546;28;20042;-87
2022/08/12 06:04:14;;;;;;;0.65;0.50;;;17.70;99.90;;;;;;5017937;28;20483;-88
2022/08/12 06:06:41;;;;;;;0.20;0.20;;;17.80;99.90;;;;;;5000247;28;20510;-84
2022/08/12 06:09:10;;;;;;;0.45;0.30;;;17.90;99.90;;;;;;5017430;28;20463;-84
2022/08/12 06:11:40;;;;;;;0.22;0.15;;;17.90;99.90;;;;;;5033173;28;20037;-84
2022/08/12 06:14:07;;;;;;;0.95;0.43;;;18.00;99.90;;;;;;5033093;28;20049;-84
2022/08/12 06:16:34;;;;;;;0.20;0.15;;;18.00;99.90;;;;;;5001569;28;20042;-84
2022/08/12 06:19:01;;;;;;;0.10;0.10;;;18.10;99.90;;;;;;5016991;28;20042;-84
2022/08/12 06:21:29;;;;;;;0.38;0.28;;;18.20;99.90;;;;;;5001055;28;20041;-86
2022/08/12 06:23:57;;;;;;;0.40;0.30;;;18.30;99.90;;;;;;5000982;28;20399;-84
2022/08/12 06:26:23;;;;;;;0.20;0.20;;;18.30;99.90;;;;;;5032662;28;20049;-87
2022/08/12 06:28:50;;;;;;;0.52;0.30;;;18.40;99.90;;;;;;5016659;28;20046;-85
2022/08/12 06:31:18;;;;;;;0.57;0.40;;;18.40;99.90;;;;;;5032533;28;20052;-85
2022/08/12 06:33:48;;;;;;;0.50;0.40;;;18.60;99.90;;;;;;5032636;28;20134;-86
2022/08/12 06:36:16;;;;;;;0.47;0.30;;;18.70;99.90;;;;;;5032862;28;20041;-87
2022/08/12 06:38:46;;;;;;;0.38;0.30;;;18.70;99.90;;;;;;5017075;28;20029;-87
2022/08/12 06:43:58;;;;;;;;;;;18.90;99.90;;;;;;5035302;28;20415;-85
2022/08/12 06:46:27;;;;;;;0.47;0.40;;;19.00;99.90;;;;;;5016351;28;19923;-85
2022/08/12 06:48:57;;;;;;;0.50;0.28;;;19.00;99.90;;;;;;5032666;28;20056;-87
2022/08/12 06:51:26;;;;;;;0.70;0.40;;;19.10;99.90;;;;;;5032841;28;20042;-86
2022/08/12 06:53:54;;;;;;;0.25;0.20;;;19.20;99.90;;;;;;5031826;28;20066;-87
2022/08/12 06:56:22;;;;;;;0.32;0.32;;;19.30;99.90;;;;;;5032774;28;20103;-85
2022/08/12 06:58:49;;;;;;;0.28;0.22;;;19.40;99.90;;;;;;5032602;28;20045;-87
2022/08/12 07:01:17;;;;;;;0.22;0.20;;;19.50;99.90;;;;;;5032567;28;20188;-85
2022/08/12 07:03:47;;;;;;;0.70;0.50;;;19.60;99.90;;;;;;5032755;28;20045;-87
2022/08/12 07:06:14;;;;;;;0.15;0.15;;;19.60;99.90;;;;;;5016107;28;20189;-87
2022/08/12 07:08:42;;;;;;;0.45;0.30;;;19.70;99.90;;;;;;5015970;28;20042;-83
2022/08/12 07:11:12;;;;;;;0.20;0.20;;;19.80;99.90;;;;;;5015713;28;20565;-82
2022/08/12 07:13:44;;;;;;;0.20;0.20;;;20.00;99.90;;;;;;5016215;28;20080;-85
2022/08/12 07:16:16;;;;;;;0.20;0.20;;;20.10;99.90;;;;;;5031657;28;20045;-82
2022/08/12 07:18:46;;;;;;;0.93;0.30;;;20.20;99.90;;;;;;5031590;28;20034;-85
2022/08/12 07:21:13;;;;;;;0.50;0.38;;;20.30;99.90;;;;;;5031402;28;20124;-86
2022/08/12 07:23:41;;;;;;;0.40;0.40;;;20.40;99.90;;;;;;5015494;28;20045;-87
2022/08/12 07:26:10;;;;;;;0.45;0.35;;;20.60;99.90;;;;;;5015488;28;20551;-84
2022/08/12 07:28:40;;;;;;;0.30;0.30;;;20.70;99.90;;;;;;5032043;28;20045;-85
2022/08/12 07:31:10;;;;;;;0.32;0.22;;;20.80;99.90;;;;;;5015122;28;20042;-86
2022/08/12 07:33:39;;;;;;;0.63;0.50;;;21.00;99.90;;;;;;5031829;28;20092;-86
2022/08/12 07:36:09;;;;;;;0.70;0.40;;;21.10;99.90;;;;;;5047401;28;20041;-87
2022/08/12 07:38:38;;;;;;;0.82;0.50;;;21.30;99.90;;;;;;5015138;28;20037;-85
2022/08/12 07:41:24;;;;;;;0.88;0.52;;;21.40;99.90;;;;;;5031571;28;20053;-85
2022/08/12 07:43:53;;;;;;;0.43;0.30;;;21.60;99.90;;;;;;5028719;28;20054;-86
2022/08/12 07:46:25;;;;;;;0.40;0.22;;;21.60;99.90;;;;;;5027719;28;20510;-87
2022/08/12 07:48:55;;;;;;;0.43;0.38;;;21.80;99.90;;;;;;5033510;28;20049;-87
2022/08/12 07:51:23;;;;;;;0.38;0.25;;;22.00;99.90;;;;;;5028055;28;20084;-87
2022/08/12 07:53:51;;;;;;;0.50;0.50;;;22.10;99.90;;;;;;5026879;28;20359;-91
2022/08/12 07:56:18;;;;;;;0.45;0.30;;;22.20;99.90;;;;;;5032036;28;20427;-91
2022/08/12 07:58:45;;;;;;;0.68;0.40;;;22.30;99.90;;;;;;4997545;28;20068;-87
2022/08/12 08:01:16;;;;;;;0.55;0.40;;;22.50;99.90;;;;;;5047878;28;20050;-87
2022/08/12 08:06:31;;;;;;;0.32;0.28;;;22.90;99.90;;;;;;5046822;28;20411;-90
2022/08/12 08:08:59;;;;;;;0.35;0.28;;;23.10;99.90;;;;;;5031729;28;20037;-91
2022/08/12 08:14:12;;;;;;;0.30;0.30;;;23.40;99.90;;;;;;5034409;28;20069;-90
2022/08/12 08:16:41;;;;;;;0.40;0.40;;;23.50;99.90;;;;;;4996326;28;20065;-91
2022/08/12 08:19:14;;;;;;;0.57;0.50;;;23.60;99.90;;;;;;5027365;28;20046;-89
2022/08/12 08:21:41;;;;;;;0.35;0.30;;;23.80;99.90;;;;;;5028332;28;20109;-91
2022/08/12 08:24:14;;;;;;;0.25;0.25;;;24.00;99.90;;;;;;5043833;28;20042;-88
2022/08/12 08:26:46;;;;;;;0.70;0.50;;;24.20;99.90;;;;;;5000343;28;20038;-89
2022/08/12 08:29:14;;;;;;;0.32;0.32;;;24.20;99.90;;;;;;5030975;28;20038;-88
2022/08/12 08:31:44;;;;;;;0.55;0.38;;;24.90;99.90;;;;;;5015259;28;20046;-88
2022/08/12 08:34:16;;;;;;;0.57;0.43;;;24.50;99.90;;;;;;4997798;28;20519;-87
2022/08/12 08:36:43;;;;;;;0.40;0.40;;;24.60;99.90;;;;;;5030846;28;20572;-89
2022/08/12 08:39:12;;;;;;;1.52;0.60;;;24.80;99.90;;;;;;5014340;28;20069;-89
2022/08/12 08:44:24;;;;;;;;;;;25.00;99.90;;;;;;5019227;28;20108;-86
2022/08/12 08:46:54;;;;;;;0.40;0.38;;;25.20;99.90;;;;;;5013253;28;19928;-86
2022/08/12 08:49:22;;;;;;;0.63;0.30;;;25.30;99.90;;;;;;4999052;28;20046;-89
2022/08/12 08:51:48;;;;;;;0.38;0.38;;;25.40;99.90;;;;;;5014095;28;20044;-89
2022/08/12 08:54:15;;;;;;;0.80;0.40;;;25.60;99.90;;;;;;4994141;28;20134;-91
2022/08/12 08:56:43;;;;;;;0.70;0.50;;;25.70;99.90;;;;;;4998747;28;20041;-84
2022/08/12 08:59:11;;;;;;;0.43;0.32;;;25.90;99.90;;;;;;5010224;28;20074;-84
2022/08/12 09:01:38;;;;;;;0.55;0.40;;;26.00;99.90;;;;;;5010896;28;20046;-88
2022/08/12 09:04:07;;;;;;;0.30;0.30;;;26.20;99.90;;;;;;4994711;28;20081;-87
2022/08/12 09:06:33;;;;;;;0.77;0.43;;;26.40;99.90;;;;;;5021451;28;20111;-85
2022/08/12 09:09:02;;;;;;;0.35;0.35;;;26.50;99.90;;;;;;5030142;28;20049;-87
2022/08/12 09:14:13;;;;;;;0.22;0.22;;;26.70;99.90;;;;;;5028215;28;20487;-84
2022/08/12 09:16:40;;;;;;;0.50;0.50;;;26.90;99.90;;;;;;5030565;28;20050;-89
2022/08/12 09:19:09;;;;;;;0.30;0.30;;;27.00;99.90;;;;;;5002243;28;20073;-89
2022/08/12 09:21:36;;;;;;;0.68;0.47;;;27.20;99.90;;;;;;5050258;28;20046;-87
2022/08/12 09:24:03;;;;;;;0.40;0.40;;;27.30;99.90;;;;;;5017799;28;20136;-83
2022/08/12 09:26:30;;;;;;;0.75;0.40;;;27.40;99.90;;;;;;5017588;28;20045;-84
2022/08/12 09:28:57;;;;;;;0.25;0.22;;;27.50;99.90;;;;;;5017546;28;20042;-83
2022/08/12 09:31:24;;;;;;;0.45;0.40;;;27.60;99.90;;;;;;5032920;28;20116;-89
2022/08/12 09:33:51;;;;;;;0.35;0.32;;;27.70;99.70;;;;;;5017651;28;20124;-87
2022/08/12 09:36:17;;;;;;;1.10;0.43;;;27.90;99.90;;;;;;5001100;28;20125;-85
2022/08/12 09:38:44;;;;;;;0.50;0.50;;;27.90;99.70;;;;;;5034032;28;20038;-85
2022/08/12 09:41:14;;;;;;;0.20;0.20;;;28.00;99.90;;;;;;5001419;28;20183;-85
2022/08/12 09:46:30;;;;;;;0.88;0.50;;;28.10;97.10;;;;;;5049827;28;20041;-86
2022/08/12 09:48:58;;;;;;;0.25;0.25;;;28.30;98.90;;;;;;5017063;28;20046;-86
2022/08/12 09:51:26;;;;;;;0.52;0.40;;;28.50;99.40;;;;;;5017116;28;20038;-85
2022/08/12 09:53:53;;;;;;;0.75;0.50;;;28.60;95.50;;;;;;5033253;28;20062;-85
2022/08/12 09:56:22;;;;;;;0.40;0.40;;;28.70;97.30;;;;;;5000984;28;20053;-86
2022/08/12 09:58:50;;;;;;;0.30;0.30;;;28.90;97.00;;;;;;5001060;28;20042;-85
2022/08/12 10:01:18;;;;;;;0.65;0.40;;;28.90;96.90;;;;;;5016943;28;20128;-85
2022/08/12 10:03:44;;;;;;;0.65;0.47;;;29.00;96.50;;;;;;5001343;28;20042;-86
2022/08/12 10:06:11;;;;;;;0.57;0.50;;;29.00;96.20;;;;;;5000946;28;20044;-87
2022/08/12 10:08:38;;;;;;;0.30;0.30;;;29.20;96.00;;;;;;5001340;28;20034;-86
2022/08/12 10:13:55;;;;;;;0.68;0.50;;;29.50;94.00;;;;;;5049346;28;20041;-86
2022/08/12 10:16:27;;;;;;;0.55;0.35;;;29.70;93.90;;;;;;5033418;28;20073;-88
2022/08/12 10:19:04;;;;;;;0.45;0.40;;;29.70;94.50;;;;;;5034181;28;20042;-90
2022/08/12 10:21:40;;;;;;;0.40;0.40;;;29.80;88.50;;;;;;5050287;28;20041;-87
2022/08/12 10:24:14;;;;;;;0.57;0.30;;;29.90;91.60;;;;;;5030752;28;20050;-86
2022/08/12 10:29:43;;;;;;;0.40;0.40;;;30.20;90.20;;;;;;5048000;28;20053;-86
2022/08/12 10:32:19;;;;;;;0.38;0.38;;;30.20;92.20;;;;;;5032415;28;20503;-87
2022/08/12 10:34:47;;;;;;;0.45;0.40;;;30.20;91.40;;;;;;5049460;28;20879;-87
2022/08/12 10:37:15;;;;;;;0.40;0.40;;;30.20;92.40;;;;;;5016549;28;20049;-87
2022/08/12 10:39:43;;;;;;;0.60;0.28;;;30.30;91.20;;;;;;5016249;28;20073;-88
2022/08/12 10:45:03;;;;;;;0.40;0.40;;;30.50;88.50;;;;;;5039098;28;20045;-88
2022/08/12 10:47:32;;;;;;;0.88;0.60;;;30.60;90.40;;;;;;5032687;28;20038;-86
2022/08/12 10:50:00;;;;;;;0.50;0.50;;;30.70;89.00;;;;;;5032904;28;20045;-89
2022/08/12 10:52:30;;;;;;;0.40;0.40;;;30.70;86.40;;;;;;5049179;28;20521;-88
2022/08/12 10:54:58;;;;;;;0.47;0.47;;;30.80;90.30;;;;;;5049035;28;20054;-88
2022/08/12 10:57:26;;;;;;;0.50;0.50;;;30.90;90.00;;;;;;5017127;28;20056;-92
2022/08/12 10:59:58;;;;;;;0.30;0.30;;;30.90;88.40;;;;;;5017206;28;20092;-89
2022/08/12 11:02:27;;;;;;;0.50;0.45;;;30.90;90.40;;;;;;5033218;28;20041;-92
2022/08/12 11:04:58;;;;;;;0.28;0.28;;;31.00;89.40;;;;;;5032909;28;20084;-87
2022/08/12 11:07:26;;;;;;;0.40;0.40;;;30.90;84.50;;;;;;5048345;28;20042;-87
2022/08/12 11:09:53;;;;;;;3.67;0.60;;;31.00;87.80;;;;;;5016008;28;20049;-87
2022/08/12 11:12:20;;;;;;;0.60;0.47;;;30.90;88.50;;;;;;5032049;28;20050;-87
2022/08/12 11:14:47;;;;;;;0.22;0.22;;;31.00;85.70;;;;;;5016413;28;20482;-88
2022/08/12 11:17:14;;;;;;;0.40;0.40;;;31.10;87.40;;;;;;5031532;28;20507;-83
2022/08/12 11:19:42;;;;;;;0.40;0.38;;;31.10;85.00;;;;;;5031539;28;20049;-83
2022/08/12 11:22:10;;;;;;;0.40;0.40;;;31.20;86.80;;;;;;5031831;28;20052;-83
2022/08/12 11:24:38;;;;;;;0.57;0.40;;;31.20;85.90;;;;;;5031413;28;20038;-84
2022/08/12 11:27:07;;;;;;;0.60;0.43;;;31.20;84.80;;;;;;5031626;28;20038;-83
2022/08/12 11:29:35;;;;;;;4.57;0.50;;;31.20;83.60;;;;;;5031609;28;20053;-82
2022/08/12 11:32:01;;;;;;;0.52;0.38;;;31.20;86.60;;;;;;4999450;28;20046;-86
2022/08/12 11:34:29;;;;;;;0.30;0.30;;;31.30;85.40;;;;;;5031627;28;20514;-91
2022/08/12 11:36:59;;;;;;;1.00;0.60;;;31.30;84.40;;;;;;5016487;28;20157;-91
2022/08/12 11:39:26;;;;;;;0.63;0.47;;;31.30;84.10;;;;;;5015284;28;20509;-88
2022/08/12 11:41:53;;;;;;;0.40;0.32;;;31.30;85.10;;;;;;5030023;28;20042;-86
2022/08/12 11:44:20;;;;;;;0.63;0.50;;;31.40;83.00;;;;;;5015442;28;20398;-91
2022/08/12 11:46:47;;;;;;;0.30;0.30;;;31.40;83.50;;;;;;4999345;28;20475;-91
2022/08/12 11:49:13;;;;;;;0.30;0.30;;;31.30;83.40;;;;;;5015982;28;20483;-88
2022/08/12 11:51:40;;;;;;;0.47;0.40;;;31.40;82.00;;;;;;4999931;28;20080;-91
2022/08/12 11:54:07;;;;;;;0.30;0.30;;;31.30;81.60;;;;;;5031088;28;20058;-86
2022/08/12 11:56:35;;;;;;;0.32;0.32;;;31.40;81.90;;;;;;4999576;28;20104;-91
2022/08/12 11:59:01;;;;;;;0.28;0.28;;;31.30;80.70;;;;;;4999299;28;20042;-90
2022/08/12 12:01:28;;;;;;;0.57;0.40;;;31.30;81.10;;;;;;5014784;28;20053;-91
2022/08/12 12:03:55;;;;;;;0.50;0.45;;;31.30;80.40;;;;;;5014883;28;20038;-86
2022/08/12 12:06:22;;;;;;;0.32;0.30;;;31.40;80.80;;;;;;5015362;28;20515;-91
2022/08/12 12:08:49;;;;;;;0.30;0.30;;;31.40;80.70;;;;;;5015298;28;20072;-87
2022/08/12 12:11:16;;;;;;;0.85;0.50;;;31.40;79.60;;;;;;4998887;28;20482;-86
2022/08/12 12:13:42;;;;;;;0.30;0.30;;;31.40;79.30;;;;;;5015010;28;20054;-86
2022/08/12 12:16:09;;;;;;;0.47;0.47;;;31.40;79.50;;;;;;5014629;28;20085;-91
2022/08/12 12:18:36;;;;;;;0.20;0.20;;;31.50;75.10;;;;;;5014942;28;20077;-92
2022/08/12 12:21:05;;;;;;;0.32;0.30;;;31.50;78.80;;;;;;5014973;28;20044;-92
2022/08/12 12:23:33;;;;;;;0.30;0.30;;;31.50;78.10;;;;;;5030697;28;20087;-89
2022/08/12 12:26:01;;;;;;;0.35;0.35;;;31.60;76.80;;;;;;5014789;28;20042;-86
2022/08/12 12:28:28;;;;;;;0.30;0.30;;;31.50;76.90;;;;;;5031063;28;20042;-91
2022/08/12 12:30:55;;;;;;;0.32;0.32;;;31.60;78.60;;;;;;5014683;28;20034;-86
2022/08/12 12:33:22;;;;;;;0.50;0.50;;;31.60;76.30;;;;;;4998236;28;20045;-89
2022/08/12 12:35:48;;;;;;;0.45;0.40;;;31.50;77.70;;;;;;5014412;28;20050;-86
2022/08/12 12:38:15;;;;;;;0.30;0.30;;;31.70;77.10;;;;;;5014375;28;20041;-85
2022/08/12 12:40:44;;;;;;;0.45;0.40;;;31.60;74.10;;;;;;5014474;28;20104;-87
2022/08/12 12:43:12;;;;;;;0.40;0.40;;;31.70;76.60;;;;;;5030916;28;20495;-87
2022/08/12 12:45:39;;;;;;;0.30;0.30;;;31.70;76.90;;;;;;5030488;28;20092;-87
2022/08/12 12:48:16;;;;;;;0.40;0.40;;;31.70;76.70;;;;;;5014834;28;20038;-86
2022/08/12 12:51:14;;;;;;;0.40;0.40;;;31.70;75.60;;;;;;5046897;28;20054;-90
2022/08/12 12:53:41;;;;;;;0.50;0.38;;;31.60;76.20;;;;;;5045900;28;20082;-85
2022/08/12 12:56:21;;;;;;;0.50;0.40;;;31.60;75.20;;;;;;5030482;28;20124;-86
2022/08/12 12:58:50;;;;;;;0.47;0.43;;;31.60;74.00;;;;;;5031009;28;20042;-91
2022/08/12 13:01:20;;;;;;;0.40;0.40;;;31.70;75.60;;;;;;5030311;28;20405;-90
2022/08/12 13:03:52;;;;;;;0.50;0.45;;;31.50;75.40;;;;;;5014694;28;20038;-86
2022/08/12 13:06:28;;;;;;;0.45;0.40;;;31.60;76.00;;;;;;5000126;28;20041;-86
2022/08/12 13:08:56;;;;;;;0.40;0.40;;;31.50;74.40;;;;;;5016863;28;20056;-86
2022/08/12 13:11:23;;;;;;;0.65;0.50;;;31.60;74.10;;;;;;4998043;28;20141;-86
2022/08/12 13:13:52;;;;;;;0.60;0.35;;;31.60;74.90;;;;;;5047286;28;20049;-91
2022/08/12 13:16:20;;;;;;;0.45;0.43;;;31.50;74.40;;;;;;5014161;28;20087;-91
2022/08/12 13:18:48;;;;;;;0.50;0.50;;;31.60;74.50;;;;;;5030128;28;20240;-85
2022/08/12 13:21:16;;;;;;;0.40;0.40;;;31.70;75.70;;;;;;5030451;28;20542;-86
2022/08/12 13:23:48;;;;;;;0.30;0.30;;;31.70;75.70;;;;;;5029039;28;20533;-91
2022/08/12 13:26:17;;;;;;;0.40;0.40;;;31.70;75.30;;;;;;5029966;28;20038;-91
2022/08/12 13:28:46;;;;;;;0.65;0.60;;;31.70;74.30;;;;;;5014582;28;20072;-91
2022/08/12 13:31:15;;;;;;;0.32;0.28;;;31.70;74.40;;;;;;5014280;28;20844;-91
2022/08/12 13:33:42;;;;;;;0.45;0.35;;;31.70;75.70;;;;;;5014455;28;20046;-86
2022/08/12 13:36:09;;;;;;;0.45;0.40;;;31.60;75.80;;;;;;5029854;28;20159;-87
2022/08/12 13:38:38;;;;;;;0.50;0.50;;;31.50;74.00;;;;;;4997704;28;20042;-91
2022/08/12 13:41:06;;;;;;;0.70;0.50;;;31.40;74.70;;;;;;5046969;28;20038;-87
2022/08/12 13:43:33;;;;;;;0.73;0.50;;;31.40;75.00;;;;;;5013975;28;20045;-92
2022/08/12 13:46:00;;;;;;;0.40;0.40;;;31.40;74.70;;;;;;5029858;28;20130;-86
2022/08/12 13:48:28;;;;;;;0.47;0.40;;;31.30;75.30;;;;;;5014257;28;20042;-86
2022/08/12 13:50:56;;;;;;;0.40;0.40;;;31.30;74.70;;;;;;5014475;28;20038;-92
2022/08/12 13:53:23;;;;;;;0.57;0.50;;;31.30;74.20;;;;;;5014172;28;20041;-92
2022/08/12 13:55:50;;;;;;;0.40;0.40;;;31.30;75.00;;;;;;4982191;28;20612;-86
2022/08/12 13:58:21;;;;;;;0.65;0.40;;;31.20;74.30;;;;;;4998591;28;20037;-91
2022/08/12 14:00:50;;;;;;;0.45;0.32;;;31.20;74.20;;;;;;4997742;28;20041;-86
2022/08/12 14:03:18;;;;;;;0.75;0.52;;;31.10;73.60;;;;;;5013551;28;20392;-93
2022/08/12 14:05:45;;;;;;;0.63;0.50;;;31.20;74.70;;;;;;5001268;28;20044;-87
2022/08/12 14:08:14;;;;;;;0.40;0.40;;;31.20;72.00;;;;;;5001346;28;20046;-89
2022/08/12 14:10:48;;;;;;;0.28;0.28;;;31.20;74.10;;;;;;5001628;28;20038;-86
2022/08/12 14:13:16;;;;;;;0.45;0.38;;;31.30;74.20;;;;;;5017216;28;20522;-89
2022/08/12 14:15:45;;;;;;;0.47;0.47;;;31.30;73.90;;;;;;5017192;28;20050;-86
2022/08/12 14:18:13;;;;;;;0.40;0.40;;;31.30;73.70;;;;;;5017331;28;20045;-85
2022/08/12 14:20:46;;;;;;;0.43;0.40;;;31.30;73.60;;;;;;5016548;28;20120;-85
2022/08/12 14:23:14;;;;;;;0.50;0.50;;;31.30;73.70;;;;;;5013614;28;20046;-86
2022/08/12 14:25:42;;;;;;;0.63;0.50;;;31.20;74.80;;;;;;5013736;28;20049;-86
2022/08/12 14:28:14;;;;;;;0.50;0.40;;;31.20;74.80;;;;;;4982326;28;20137;-87
2022/08/12 14:30:52;;;;;;;0.60;0.50;;;31.20;74.90;;;;;;4997503;28;20046;-88
2022/08/12 14:33:24;;;;;;;0.47;0.40;;;31.20;74.20;;;;;;4997327;28;20050;-89
2022/08/12 14:35:51;;;;;;;0.40;0.40;;;31.20;74.40;;;;;;5013722;28;20054;-90
2022/08/12 14:38:26;;;;;;;0.47;0.47;;;31.20;74.70;;;;;;4997635;28;20042;-90
2022/08/12 14:41:01;;;;;;;0.57;0.45;;;31.20;74.00;;;;;;4997502;28;20129;-86
2022/08/12 14:43:36;;;;;;;1.05;0.57;;;31.20;73.20;;;;;;4997436;28;20034;-90
2022/08/12 14:46:03;;;;;;;;;;;31.20;74.60;;;;;;4997292;28;20050;-93
2022/08/12 14:48:30;;;;;;;0.60;0.40;;;31.20;73.60;;;;;;4981317;28;19918;-85
2022/08/12 14:50:58;;;;;;;0.55;0.40;;;31.20;74.70;;;;;;4996986;28;20077;-91